Nashville, Tennessee
Traffic Map
Current Weather Conditions
Nashville, Tennessee
Broken Clouds
Broken Clouds
24°
Feels Like: 24°
Wind Chill: 24° Ceiling: 11000
Heat Index: 24° Visibility: 10mi
Dew Point: 19° Wind: 0mph
Humidity: 74% Direction: ° ()
Pressure: 30.13in Gusts: 0mph
Raw Report DataKBNA 290153Z 00000KT 10SM BKN110 24/19 A3013 RMK AO2 SLP197 T02440194
Traffic Incident Summary
Active as of:
Severity:
Category:
InformationThere was an issue retrieving the traffic information for this location. Please try a different location or try again shortly.
Advertisements
Track Severe Weather on mobile